<?xml version="1.0" encoding="UTF-8" standalone="no" ?>
<gpx xmlns="http://www.topografix.com/GPX/1/1" xmlns:xsi="http://www.w3.org/2001/XMLSchema-instance" xsi:schemaLocation="http://www.topografix.com/GPX/1/1 http://www.topografix.com/GPX/1/1/gpx.xsd" version="1.1" creator="VisuGPX - https://www.visugpx.com">
  <metadata>
    <name>Rando Etrechy-Lardy Gatinais (21km)</name>
    <desc><![CDATA[Un joli parcours de 21 km de la gare d'Etrechy à celle de Lardy
A retrouver aussi sur [url]http://trekkingzone.wordpress.com[/url]]]></desc>
  </metadata>
  <trk>
    <name><![CDATA[19 mars 2017 à 10:12:35]]></name>
    <cmt><![CDATA[19 mars 2017 à 10:12:35]]></cmt>
    <trkseg>
      <trkpt lat="48.49425" lon="2.19522">
        <ele>82</ele>
        <time>2017-03-19T09:12:42Z</time>
      </trkpt>
      <trkpt lat="48.49405" lon="2.19505">
        <ele>81</ele>
        <time>2017-03-19T09:13:19Z</time>
      </trkpt>
      <trkpt lat="48.49365" lon="2.19472">
        <ele>81</ele>
        <time>2017-03-19T09:14:04Z</time>
      </trkpt>
      <trkpt lat="48.49366" lon="2.19435">
        <ele>80</ele>
        <time>2017-03-19T09:15:02Z</time>
      </trkpt>
      <trkpt lat="48.49379" lon="2.19407">
        <ele>79</ele>
        <time>2017-03-19T09:19:09Z</time>
      </trkpt>
      <trkpt lat="48.49341" lon="2.19369">
        <ele>78</ele>
        <time>2017-03-19T09:19:56Z</time>
      </trkpt>
      <trkpt lat="48.49322" lon="2.19349">
        <ele>78</ele>
        <time>2017-03-19T09:20:19Z</time>
      </trkpt>
      <trkpt lat="48.493" lon="2.1934">
        <ele>78</ele>
        <time>2017-03-19T09:20:36Z</time>
      </trkpt>
      <trkpt lat="48.4926" lon="2.19303">
        <ele>78</ele>
        <time>2017-03-19T09:21:20Z</time>
      </trkpt>
      <trkpt lat="48.49239" lon="2.19289">
        <ele>78</ele>
        <time>2017-03-19T09:21:38Z</time>
      </trkpt>
      <trkpt lat="48.49223" lon="2.19264">
        <ele>78</ele>
        <time>2017-03-19T09:21:55Z</time>
      </trkpt>
      <trkpt lat="48.49203" lon="2.19246">
        <ele>77</ele>
        <time>2017-03-19T09:22:13Z</time>
      </trkpt>
      <trkpt lat="48.49188" lon="2.19221">
        <ele>77</ele>
        <time>2017-03-19T09:22:30Z</time>
      </trkpt>
      <trkpt lat="48.49168" lon="2.19201">
        <ele>77</ele>
        <time>2017-03-19T09:22:49Z</time>
      </trkpt>
      <trkpt lat="48.49134" lon="2.1915">
        <ele>76</ele>
        <time>2017-03-19T09:23:32Z</time>
      </trkpt>
      <trkpt lat="48.49115" lon="2.19133">
        <ele>76</ele>
        <time>2017-03-19T09:23:48Z</time>
      </trkpt>
      <trkpt lat="48.4908" lon="2.19086">
        <ele>75</ele>
        <time>2017-03-19T09:24:32Z</time>
      </trkpt>
      <trkpt lat="48.49046" lon="2.19038">
        <ele>74</ele>
        <time>2017-03-19T09:25:05Z</time>
      </trkpt>
      <trkpt lat="48.49026" lon="2.19023">
        <ele>74</ele>
        <time>2017-03-19T09:25:21Z</time>
      </trkpt>
      <trkpt lat="48.49012" lon="2.18996">
        <ele>73</ele>
        <time>2017-03-19T09:25:36Z</time>
      </trkpt>
      <trkpt lat="48.49014" lon="2.18962">
        <ele>73</ele>
        <time>2017-03-19T09:26:01Z</time>
      </trkpt>
      <trkpt lat="48.4895" lon="2.18922">
        <ele>72</ele>
        <time>2017-03-19T09:26:44Z</time>
      </trkpt>
      <trkpt lat="48.48907" lon="2.18898">
        <ele>72</ele>
        <time>2017-03-19T09:27:18Z</time>
      </trkpt>
      <trkpt lat="48.48863" lon="2.18886">
        <ele>72</ele>
        <time>2017-03-19T09:27:54Z</time>
      </trkpt>
      <trkpt lat="48.4882" lon="2.18912">
        <ele>71</ele>
        <time>2017-03-19T09:28:29Z</time>
      </trkpt>
      <trkpt lat="48.48799" lon="2.18927">
        <ele>71</ele>
        <time>2017-03-19T09:28:44Z</time>
      </trkpt>
      <trkpt lat="48.48755" lon="2.18946">
        <ele>71</ele>
        <time>2017-03-19T09:29:19Z</time>
      </trkpt>
      <trkpt lat="48.48733" lon="2.18958">
        <ele>71</ele>
        <time>2017-03-19T09:29:36Z</time>
      </trkpt>
      <trkpt lat="48.48713" lon="2.18974">
        <ele>71</ele>
        <time>2017-03-19T09:29:58Z</time>
      </trkpt>
      <trkpt lat="48.48667" lon="2.1899">
        <ele>71</ele>
        <time>2017-03-19T09:30:35Z</time>
      </trkpt>
      <trkpt lat="48.48646" lon="2.19007">
        <ele>71</ele>
        <time>2017-03-19T09:30:52Z</time>
      </trkpt>
      <trkpt lat="48.48607" lon="2.19048">
        <ele>71</ele>
        <time>2017-03-19T09:31:26Z</time>
      </trkpt>
      <trkpt lat="48.48576" lon="2.19099">
        <ele>70</ele>
        <time>2017-03-19T09:32:16Z</time>
      </trkpt>
      <trkpt lat="48.48556" lon="2.19118">
        <ele>70</ele>
        <time>2017-03-19T09:32:28Z</time>
      </trkpt>
      <trkpt lat="48.48542" lon="2.19144">
        <ele>70</ele>
        <time>2017-03-19T09:32:51Z</time>
      </trkpt>
      <trkpt lat="48.48535" lon="2.19215">
        <ele>69</ele>
        <time>2017-03-19T09:33:34Z</time>
      </trkpt>
      <trkpt lat="48.48522" lon="2.19282">
        <ele>68</ele>
        <time>2017-03-19T09:34:13Z</time>
      </trkpt>
      <trkpt lat="48.48514" lon="2.19349">
        <ele>67</ele>
        <time>2017-03-19T09:34:51Z</time>
      </trkpt>
      <trkpt lat="48.48506" lon="2.19381">
        <ele>66</ele>
        <time>2017-03-19T09:35:09Z</time>
      </trkpt>
      <trkpt lat="48.48505" lon="2.19419">
        <ele>66</ele>
        <time>2017-03-19T09:35:36Z</time>
      </trkpt>
      <trkpt lat="48.48499" lon="2.19452">
        <ele>65</ele>
        <time>2017-03-19T09:35:47Z</time>
      </trkpt>
      <trkpt lat="48.48503" lon="2.19486">
        <ele>65</ele>
        <time>2017-03-19T09:36:06Z</time>
      </trkpt>
      <trkpt lat="48.48516" lon="2.19515">
        <ele>65</ele>
        <time>2017-03-19T09:36:24Z</time>
      </trkpt>
      <trkpt lat="48.48504" lon="2.19545">
        <ele>65</ele>
        <time>2017-03-19T09:36:41Z</time>
      </trkpt>
      <trkpt lat="48.48474" lon="2.196">
        <ele>66</ele>
        <time>2017-03-19T09:37:20Z</time>
      </trkpt>
      <trkpt lat="48.48464" lon="2.19631">
        <ele>66</ele>
        <time>2017-03-19T09:37:38Z</time>
      </trkpt>
      <trkpt lat="48.48457" lon="2.19698">
        <ele>65</ele>
        <time>2017-03-19T09:38:13Z</time>
      </trkpt>
      <trkpt lat="48.48431" lon="2.19754">
        <ele>63</ele>
        <time>2017-03-19T09:38:50Z</time>
      </trkpt>
      <trkpt lat="48.48412" lon="2.1982">
        <ele>62</ele>
        <time>2017-03-19T09:39:33Z</time>
      </trkpt>
      <trkpt lat="48.48404" lon="2.19852">
        <ele>62</ele>
        <time>2017-03-19T09:39:54Z</time>
      </trkpt>
      <trkpt lat="48.48405" lon="2.19888">
        <ele>62</ele>
        <time>2017-03-19T09:40:11Z</time>
      </trkpt>
      <trkpt lat="48.48415" lon="2.19919">
        <ele>62</ele>
        <time>2017-03-19T09:40:25Z</time>
      </trkpt>
      <trkpt lat="48.48412" lon="2.19987">
        <ele>63</ele>
        <time>2017-03-19T09:41:08Z</time>
      </trkpt>
      <trkpt lat="48.48418" lon="2.20047">
        <ele>63</ele>
        <time>2017-03-19T09:43:13Z</time>
      </trkpt>
      <trkpt lat="48.48398" lon="2.20065">
        <ele>64</ele>
        <time>2017-03-19T09:43:32Z</time>
      </trkpt>
      <trkpt lat="48.48378" lon="2.20081">
        <ele>63</ele>
        <time>2017-03-19T09:43:47Z</time>
      </trkpt>
      <trkpt lat="48.48369" lon="2.20114">
        <ele>63</ele>
        <time>2017-03-19T09:44:04Z</time>
      </trkpt>
      <trkpt lat="48.48367" lon="2.20149">
        <ele>63</ele>
        <time>2017-03-19T09:44:18Z</time>
      </trkpt>
      <trkpt lat="48.48403" lon="2.202">
        <ele>63</ele>
        <time>2017-03-19T09:44:42Z</time>
      </trkpt>
      <trkpt lat="48.48443" lon="2.20237">
        <ele>63</ele>
        <time>2017-03-19T09:45:18Z</time>
      </trkpt>
      <trkpt lat="48.48479" lon="2.20285">
        <ele>64</ele>
        <time>2017-03-19T09:45:52Z</time>
      </trkpt>
      <trkpt lat="48.48481" lon="2.20319">
        <ele>64</ele>
        <time>2017-03-19T09:46:22Z</time>
      </trkpt>
      <trkpt lat="48.48473" lon="2.20387">
        <ele>66</ele>
        <time>2017-03-19T09:47:12Z</time>
      </trkpt>
      <trkpt lat="48.48462" lon="2.20419">
        <ele>67</ele>
        <time>2017-03-19T09:47:26Z</time>
      </trkpt>
      <trkpt lat="48.48446" lon="2.20446">
        <ele>67</ele>
        <time>2017-03-19T09:47:43Z</time>
      </trkpt>
      <trkpt lat="48.48424" lon="2.20506">
        <ele>70</ele>
        <time>2017-03-19T09:48:28Z</time>
      </trkpt>
      <trkpt lat="48.4838" lon="2.20486">
        <ele>72</ele>
        <time>2017-03-19T09:49:15Z</time>
      </trkpt>
      <trkpt lat="48.48343" lon="2.20444">
        <ele>74</ele>
        <time>2017-03-19T09:49:47Z</time>
      </trkpt>
      <trkpt lat="48.48309" lon="2.20396">
        <ele>75</ele>
        <time>2017-03-19T09:50:19Z</time>
      </trkpt>
      <trkpt lat="48.48291" lon="2.20376">
        <ele>76</ele>
        <time>2017-03-19T09:50:34Z</time>
      </trkpt>
      <trkpt lat="48.48277" lon="2.20347">
        <ele>76</ele>
        <time>2017-03-19T09:50:56Z</time>
      </trkpt>
      <trkpt lat="48.48231" lon="2.20331">
        <ele>77</ele>
        <time>2017-03-19T09:51:35Z</time>
      </trkpt>
      <trkpt lat="48.48209" lon="2.20321">
        <ele>76</ele>
        <time>2017-03-19T09:51:55Z</time>
      </trkpt>
      <trkpt lat="48.4819" lon="2.20341">
        <ele>77</ele>
        <time>2017-03-19T09:52:22Z</time>
      </trkpt>
      <trkpt lat="48.48164" lon="2.20399">
        <ele>77</ele>
        <time>2017-03-19T09:52:54Z</time>
      </trkpt>
      <trkpt lat="48.48141" lon="2.2046">
        <ele>77</ele>
        <time>2017-03-19T09:53:31Z</time>
      </trkpt>
      <trkpt lat="48.48123" lon="2.20483">
        <ele>78</ele>
        <time>2017-03-19T09:53:53Z</time>
      </trkpt>
      <trkpt lat="48.48095" lon="2.20539">
        <ele>80</ele>
        <time>2017-03-19T09:54:37Z</time>
      </trkpt>
      <trkpt lat="48.48089" lon="2.20573">
        <ele>81</ele>
        <time>2017-03-19T09:54:54Z</time>
      </trkpt>
      <trkpt lat="48.48075" lon="2.20595">
        <ele>85</ele>
        <time>2017-03-19T10:02:28Z</time>
      </trkpt>
      <trkpt lat="48.48066" lon="2.20628">
        <ele>86</ele>
        <time>2017-03-19T10:02:53Z</time>
      </trkpt>
      <trkpt lat="48.48037" lon="2.20681">
        <ele>87</ele>
        <time>2017-03-19T10:03:27Z</time>
      </trkpt>
      <trkpt lat="48.47999" lon="2.20726">
        <ele>88</ele>
        <time>2017-03-19T10:04:05Z</time>
      </trkpt>
      <trkpt lat="48.4797" lon="2.20777">
        <ele>90</ele>
        <time>2017-03-19T10:04:46Z</time>
      </trkpt>
      <trkpt lat="48.47936" lon="2.20825">
        <ele>93</ele>
        <time>2017-03-19T10:05:35Z</time>
      </trkpt>
      <trkpt lat="48.47919" lon="2.20848">
        <ele>95</ele>
        <time>2017-03-19T10:05:55Z</time>
      </trkpt>
      <trkpt lat="48.4792" lon="2.20883">
        <ele>96</ele>
        <time>2017-03-19T10:06:23Z</time>
      </trkpt>
      <trkpt lat="48.47908" lon="2.20951">
        <ele>101</ele>
        <time>2017-03-19T10:07:13Z</time>
      </trkpt>
      <trkpt lat="48.47905" lon="2.20985">
        <ele>103</ele>
        <time>2017-03-19T10:07:31Z</time>
      </trkpt>
      <trkpt lat="48.47891" lon="2.21012">
        <ele>104</ele>
        <time>2017-03-19T10:08:04Z</time>
      </trkpt>
      <trkpt lat="48.47872" lon="2.21074">
        <ele>109</ele>
        <time>2017-03-19T10:08:45Z</time>
      </trkpt>
      <trkpt lat="48.47851" lon="2.21135">
        <ele>114</ele>
        <time>2017-03-19T10:09:23Z</time>
      </trkpt>
      <trkpt lat="48.47839" lon="2.21202">
        <ele>118</ele>
        <time>2017-03-19T10:10:06Z</time>
      </trkpt>
      <trkpt lat="48.47826" lon="2.21231">
        <ele>121</ele>
        <time>2017-03-19T10:10:29Z</time>
      </trkpt>
      <trkpt lat="48.47807" lon="2.21252">
        <ele>123</ele>
        <time>2017-03-19T10:11:14Z</time>
      </trkpt>
      <trkpt lat="48.47788" lon="2.2127">
        <ele>132</ele>
        <time>2017-03-19T10:12:33Z</time>
      </trkpt>
      <trkpt lat="48.4779" lon="2.21307">
        <ele>134</ele>
        <time>2017-03-19T10:12:54Z</time>
      </trkpt>
      <trkpt lat="48.47791" lon="2.21341">
        <ele>134</ele>
        <time>2017-03-19T10:13:10Z</time>
      </trkpt>
      <trkpt lat="48.47769" lon="2.21404">
        <ele>134</ele>
        <time>2017-03-19T10:13:43Z</time>
      </trkpt>
      <trkpt lat="48.4774" lon="2.21459">
        <ele>134</ele>
        <time>2017-03-19T10:14:22Z</time>
      </trkpt>
      <trkpt lat="48.47724" lon="2.21483">
        <ele>135</ele>
        <time>2017-03-19T10:14:39Z</time>
      </trkpt>
      <trkpt lat="48.47708" lon="2.21548">
        <ele>135</ele>
        <time>2017-03-19T10:15:13Z</time>
      </trkpt>
      <trkpt lat="48.47695" lon="2.21616">
        <ele>135</ele>
        <time>2017-03-19T10:15:48Z</time>
      </trkpt>
      <trkpt lat="48.47695" lon="2.21685">
        <ele>136</ele>
        <time>2017-03-19T10:16:27Z</time>
      </trkpt>
      <trkpt lat="48.47701" lon="2.21719">
        <ele>137</ele>
        <time>2017-03-19T10:16:47Z</time>
      </trkpt>
      <trkpt lat="48.47697" lon="2.21753">
        <ele>138</ele>
        <time>2017-03-19T10:17:02Z</time>
      </trkpt>
      <trkpt lat="48.477" lon="2.21821">
        <ele>140</ele>
        <time>2017-03-19T10:17:37Z</time>
      </trkpt>
      <trkpt lat="48.47701" lon="2.21857">
        <ele>140</ele>
        <time>2017-03-19T10:17:56Z</time>
      </trkpt>
      <trkpt lat="48.47685" lon="2.21921">
        <ele>141</ele>
        <time>2017-03-19T10:18:27Z</time>
      </trkpt>
      <trkpt lat="48.47666" lon="2.21983">
        <ele>142</ele>
        <time>2017-03-19T10:19:05Z</time>
      </trkpt>
      <trkpt lat="48.47645" lon="2.22045">
        <ele>142</ele>
        <time>2017-03-19T10:19:39Z</time>
      </trkpt>
      <trkpt lat="48.47628" lon="2.22109">
        <ele>142</ele>
        <time>2017-03-19T10:20:13Z</time>
      </trkpt>
      <trkpt lat="48.47613" lon="2.22176">
        <ele>141</ele>
        <time>2017-03-19T10:20:46Z</time>
      </trkpt>
      <trkpt lat="48.47604" lon="2.22209">
        <ele>140</ele>
        <time>2017-03-19T10:21:03Z</time>
      </trkpt>
      <trkpt lat="48.47599" lon="2.22279">
        <ele>140</ele>
        <time>2017-03-19T10:21:35Z</time>
      </trkpt>
      <trkpt lat="48.47596" lon="2.22348">
        <ele>140</ele>
        <time>2017-03-19T10:22:09Z</time>
      </trkpt>
      <trkpt lat="48.47579" lon="2.22415">
        <ele>140</ele>
        <time>2017-03-19T10:22:46Z</time>
      </trkpt>
      <trkpt lat="48.4757" lon="2.22447">
        <ele>142</ele>
        <time>2017-03-19T10:24:36Z</time>
      </trkpt>
      <trkpt lat="48.47548" lon="2.22508">
        <ele>141</ele>
        <time>2017-03-19T10:25:18Z</time>
      </trkpt>
      <trkpt lat="48.47537" lon="2.22539">
        <ele>141</ele>
        <time>2017-03-19T10:25:41Z</time>
      </trkpt>
      <trkpt lat="48.47506" lon="2.22591">
        <ele>141</ele>
        <time>2017-03-19T10:26:23Z</time>
      </trkpt>
      <trkpt lat="48.47479" lon="2.22649">
        <ele>140</ele>
        <time>2017-03-19T10:27:07Z</time>
      </trkpt>
      <trkpt lat="48.47448" lon="2.22706">
        <ele>140</ele>
        <time>2017-03-19T10:27:43Z</time>
      </trkpt>
      <trkpt lat="48.47435" lon="2.22733">
        <ele>140</ele>
        <time>2017-03-19T10:28:05Z</time>
      </trkpt>
      <trkpt lat="48.47478" lon="2.22762">
        <ele>138</ele>
        <time>2017-03-19T10:28:44Z</time>
      </trkpt>
      <trkpt lat="48.4752" lon="2.2279">
        <ele>136</ele>
        <time>2017-03-19T10:29:30Z</time>
      </trkpt>
      <trkpt lat="48.47542" lon="2.22781">
        <ele>135</ele>
        <time>2017-03-19T10:29:48Z</time>
      </trkpt>
      <trkpt lat="48.47563" lon="2.22765">
        <ele>134</ele>
        <time>2017-03-19T10:30:15Z</time>
      </trkpt>
      <trkpt lat="48.47608" lon="2.22755">
        <ele>131</ele>
        <time>2017-03-19T10:30:54Z</time>
      </trkpt>
      <trkpt lat="48.47631" lon="2.22759">
        <ele>129</ele>
        <time>2017-03-19T10:31:15Z</time>
      </trkpt>
      <trkpt lat="48.47676" lon="2.2278">
        <ele>125</ele>
        <time>2017-03-19T10:32:02Z</time>
      </trkpt>
      <trkpt lat="48.47721" lon="2.228">
        <ele>123</ele>
        <time>2017-03-19T10:32:28Z</time>
      </trkpt>
      <trkpt lat="48.47743" lon="2.22796">
        <ele>121</ele>
        <time>2017-03-19T10:32:50Z</time>
      </trkpt>
      <trkpt lat="48.47789" lon="2.22803">
        <ele>119</ele>
        <time>2017-03-19T10:33:25Z</time>
      </trkpt>
      <trkpt lat="48.47809" lon="2.22819">
        <ele>117</ele>
        <time>2017-03-19T10:33:48Z</time>
      </trkpt>
      <trkpt lat="48.47826" lon="2.22842">
        <ele>116</ele>
        <time>2017-03-19T10:34:06Z</time>
      </trkpt>
      <trkpt lat="48.47848" lon="2.2285">
        <ele>115</ele>
        <time>2017-03-19T10:34:23Z</time>
      </trkpt>
      <trkpt lat="48.47894" lon="2.22842">
        <ele>112</ele>
        <time>2017-03-19T10:34:54Z</time>
      </trkpt>
      <trkpt lat="48.47919" lon="2.22832">
        <ele>111</ele>
        <time>2017-03-19T10:35:17Z</time>
      </trkpt>
      <trkpt lat="48.47957" lon="2.2279">
        <ele>108</ele>
        <time>2017-03-19T10:35:52Z</time>
      </trkpt>
      <trkpt lat="48.47994" lon="2.22745">
        <ele>105</ele>
        <time>2017-03-19T10:36:36Z</time>
      </trkpt>
      <trkpt lat="48.48016" lon="2.22731">
        <ele>104</ele>
        <time>2017-03-19T10:36:56Z</time>
      </trkpt>
      <trkpt lat="48.48062" lon="2.22721">
        <ele>101</ele>
        <time>2017-03-19T10:37:26Z</time>
      </trkpt>
      <trkpt lat="48.48086" lon="2.22715">
        <ele>100</ele>
        <time>2017-03-19T10:37:47Z</time>
      </trkpt>
      <trkpt lat="48.48108" lon="2.22727">
        <ele>99</ele>
        <time>2017-03-19T10:38:06Z</time>
      </trkpt>
      <trkpt lat="48.48154" lon="2.22722">
        <ele>95</ele>
        <time>2017-03-19T10:38:48Z</time>
      </trkpt>
      <trkpt lat="48.48192" lon="2.22684">
        <ele>91</ele>
        <time>2017-03-19T10:39:30Z</time>
      </trkpt>
      <trkpt lat="48.48234" lon="2.22659">
        <ele>87</ele>
        <time>2017-03-19T10:40:06Z</time>
      </trkpt>
      <trkpt lat="48.48253" lon="2.2264">
        <ele>86</ele>
        <time>2017-03-19T10:40:18Z</time>
      </trkpt>
      <trkpt lat="48.48275" lon="2.22635">
        <ele>85</ele>
        <time>2017-03-19T10:40:35Z</time>
      </trkpt>
      <trkpt lat="48.48283" lon="2.22667">
        <ele>81</ele>
        <time>2017-03-19T10:42:45Z</time>
      </trkpt>
      <trkpt lat="48.48269" lon="2.22732">
        <ele>81</ele>
        <time>2017-03-19T10:43:22Z</time>
      </trkpt>
      <trkpt lat="48.48265" lon="2.22767">
        <ele>81</ele>
        <time>2017-03-19T10:43:37Z</time>
      </trkpt>
      <trkpt lat="48.48249" lon="2.2279">
        <ele>82</ele>
        <time>2017-03-19T10:43:54Z</time>
      </trkpt>
      <trkpt lat="48.48237" lon="2.22819">
        <ele>82</ele>
        <time>2017-03-19T10:44:15Z</time>
      </trkpt>
      <trkpt lat="48.48231" lon="2.22852">
        <ele>82</ele>
        <time>2017-03-19T10:44:30Z</time>
      </trkpt>
      <trkpt lat="48.48203" lon="2.22908">
        <ele>82</ele>
        <time>2017-03-19T10:45:11Z</time>
      </trkpt>
      <trkpt lat="48.48169" lon="2.22954">
        <ele>82</ele>
        <time>2017-03-19T10:45:49Z</time>
      </trkpt>
      <trkpt lat="48.48159" lon="2.23021">
        <ele>83</ele>
        <time>2017-03-19T10:46:25Z</time>
      </trkpt>
      <trkpt lat="48.48153" lon="2.23054">
        <ele>83</ele>
        <time>2017-03-19T10:46:46Z</time>
      </trkpt>
      <trkpt lat="48.48139" lon="2.23081">
        <ele>84</ele>
        <time>2017-03-19T10:47:06Z</time>
      </trkpt>
      <trkpt lat="48.48142" lon="2.23117">
        <ele>84</ele>
        <time>2017-03-19T10:47:27Z</time>
      </trkpt>
      <trkpt lat="48.48138" lon="2.23188">
        <ele>84</ele>
        <time>2017-03-19T10:48:05Z</time>
      </trkpt>
      <trkpt lat="48.48126" lon="2.23256">
        <ele>83</ele>
        <time>2017-03-19T10:48:40Z</time>
      </trkpt>
      <trkpt lat="48.48111" lon="2.23281">
        <ele>83</ele>
        <time>2017-03-19T10:49:02Z</time>
      </trkpt>
      <trkpt lat="48.48103" lon="2.23314">
        <ele>82</ele>
        <time>2017-03-19T10:49:19Z</time>
      </trkpt>
      <trkpt lat="48.48081" lon="2.23375">
        <ele>82</ele>
        <time>2017-03-19T10:50:02Z</time>
      </trkpt>
      <trkpt lat="48.48057" lon="2.23437">
        <ele>82</ele>
        <time>2017-03-19T10:50:44Z</time>
      </trkpt>
      <trkpt lat="48.48046" lon="2.23504">
        <ele>82</ele>
        <time>2017-03-19T10:51:25Z</time>
      </trkpt>
      <trkpt lat="48.48025" lon="2.23566">
        <ele>82</ele>
        <time>2017-03-19T10:52:01Z</time>
      </trkpt>
      <trkpt lat="48.48026" lon="2.23602">
        <ele>82</ele>
        <time>2017-03-19T10:52:21Z</time>
      </trkpt>
      <trkpt lat="48.48013" lon="2.23668">
        <ele>82</ele>
        <time>2017-03-19T10:53:00Z</time>
      </trkpt>
      <trkpt lat="48.48011" lon="2.23737">
        <ele>83</ele>
        <time>2017-03-19T10:53:32Z</time>
      </trkpt>
      <trkpt lat="48.48001" lon="2.23768">
        <ele>83</ele>
        <time>2017-03-19T10:53:53Z</time>
      </trkpt>
      <trkpt lat="48.47987" lon="2.23795">
        <ele>83</ele>
        <time>2017-03-19T10:54:10Z</time>
      </trkpt>
      <trkpt lat="48.47968" lon="2.2386">
        <ele>84</ele>
        <time>2017-03-19T10:54:57Z</time>
      </trkpt>
      <trkpt lat="48.4796" lon="2.23892">
        <ele>84</ele>
        <time>2017-03-19T10:55:17Z</time>
      </trkpt>
      <trkpt lat="48.47932" lon="2.23948">
        <ele>85</ele>
        <time>2017-03-19T10:55:55Z</time>
      </trkpt>
      <trkpt lat="48.47926" lon="2.23983">
        <ele>85</ele>
        <time>2017-03-19T10:56:18Z</time>
      </trkpt>
      <trkpt lat="48.47914" lon="2.24015">
        <ele>86</ele>
        <time>2017-03-19T10:56:37Z</time>
      </trkpt>
      <trkpt lat="48.47909" lon="2.24049">
        <ele>86</ele>
        <time>2017-03-19T10:56:54Z</time>
      </trkpt>
      <trkpt lat="48.47906" lon="2.2412">
        <ele>86</ele>
        <time>2017-03-19T10:57:30Z</time>
      </trkpt>
      <trkpt lat="48.4789" lon="2.24185">
        <ele>86</ele>
        <time>2017-03-19T10:58:12Z</time>
      </trkpt>
      <trkpt lat="48.47876" lon="2.24213">
        <ele>87</ele>
        <time>2017-03-19T10:58:29Z</time>
      </trkpt>
      <trkpt lat="48.47872" lon="2.24247">
        <ele>87</ele>
        <time>2017-03-19T10:58:55Z</time>
      </trkpt>
      <trkpt lat="48.47858" lon="2.24275">
        <ele>87</ele>
        <time>2017-03-19T10:59:18Z</time>
      </trkpt>
      <trkpt lat="48.47858" lon="2.24286">
        <ele>88</ele>
        <time>2017-03-19T10:59:31Z</time>
      </trkpt>
      <trkpt lat="48.47881" lon="2.24297">
        <ele>88</ele>
        <time>2017-03-19T11:00:07Z</time>
      </trkpt>
      <trkpt lat="48.47892" lon="2.24327">
        <ele>89</ele>
        <time>2017-03-19T11:01:27Z</time>
      </trkpt>
      <trkpt lat="48.47882" lon="2.24357">
        <ele>91</ele>
        <time>2017-03-19T11:01:53Z</time>
      </trkpt>
      <trkpt lat="48.47874" lon="2.2439">
        <ele>90</ele>
        <time>2017-03-19T11:03:28Z</time>
      </trkpt>
      <trkpt lat="48.47859" lon="2.24416">
        <ele>91</ele>
        <time>2017-03-19T11:03:48Z</time>
      </trkpt>
      <trkpt lat="48.47823" lon="2.24457">
        <ele>91</ele>
        <time>2017-03-19T11:04:26Z</time>
      </trkpt>
      <trkpt lat="48.47816" lon="2.2449">
        <ele>91</ele>
        <time>2017-03-19T11:04:48Z</time>
      </trkpt>
      <trkpt lat="48.47797" lon="2.2451">
        <ele>91</ele>
        <time>2017-03-19T11:05:10Z</time>
      </trkpt>
      <trkpt lat="48.47786" lon="2.24541">
        <ele>92</ele>
        <time>2017-03-19T11:05:33Z</time>
      </trkpt>
      <trkpt lat="48.47798" lon="2.2457">
        <ele>92</ele>
        <time>2017-03-19T11:06:09Z</time>
      </trkpt>
      <trkpt lat="48.47832" lon="2.24617">
        <ele>94</ele>
        <time>2017-03-19T11:06:50Z</time>
      </trkpt>
      <trkpt lat="48.47848" lon="2.24642">
        <ele>95</ele>
        <time>2017-03-19T11:07:08Z</time>
      </trkpt>
      <trkpt lat="48.47867" lon="2.2466">
        <ele>96</ele>
        <time>2017-03-19T11:07:30Z</time>
      </trkpt>
      <trkpt lat="48.47898" lon="2.24714">
        <ele>100</ele>
        <time>2017-03-19T11:08:12Z</time>
      </trkpt>
      <trkpt lat="48.47921" lon="2.24773">
        <ele>102</ele>
        <time>2017-03-19T11:08:56Z</time>
      </trkpt>
      <trkpt lat="48.47938" lon="2.24796">
        <ele>104</ele>
        <time>2017-03-19T11:09:17Z</time>
      </trkpt>
      <trkpt lat="48.47956" lon="2.24817">
        <ele>105</ele>
        <time>2017-03-19T11:09:38Z</time>
      </trkpt>
      <trkpt lat="48.47983" lon="2.24872">
        <ele>109</ele>
        <time>2017-03-19T11:10:32Z</time>
      </trkpt>
      <trkpt lat="48.48001" lon="2.24896">
        <ele>112</ele>
        <time>2017-03-19T11:11:15Z</time>
      </trkpt>
      <trkpt lat="48.48024" lon="2.24903">
        <ele>115</ele>
        <time>2017-03-19T11:11:47Z</time>
      </trkpt>
      <trkpt lat="48.48046" lon="2.24909">
        <ele>118</ele>
        <time>2017-03-19T11:12:08Z</time>
      </trkpt>
      <trkpt lat="48.4809" lon="2.24929">
        <ele>126</ele>
        <time>2017-03-19T11:12:54Z</time>
      </trkpt>
      <trkpt lat="48.48114" lon="2.24931">
        <ele>129</ele>
        <time>2017-03-19T11:13:27Z</time>
      </trkpt>
      <trkpt lat="48.48127" lon="2.24939">
        <ele>142</ele>
        <time>2017-03-19T11:15:50Z</time>
      </trkpt>
      <trkpt lat="48.48152" lon="2.24931">
        <ele>142</ele>
        <time>2017-03-19T11:19:51Z</time>
      </trkpt>
      <trkpt lat="48.48174" lon="2.24939">
        <ele>144</ele>
        <time>2017-03-19T11:20:14Z</time>
      </trkpt>
      <trkpt lat="48.4822" lon="2.24939">
        <ele>144</ele>
        <time>2017-03-19T11:20:55Z</time>
      </trkpt>
      <trkpt lat="48.48242" lon="2.24937">
        <ele>144</ele>
        <time>2017-03-19T11:21:13Z</time>
      </trkpt>
      <trkpt lat="48.48265" lon="2.24931">
        <ele>144</ele>
        <time>2017-03-19T11:21:43Z</time>
      </trkpt>
      <trkpt lat="48.48288" lon="2.24934">
        <ele>145</ele>
        <time>2017-03-19T11:22:04Z</time>
      </trkpt>
      <trkpt lat="48.48311" lon="2.24928">
        <ele>145</ele>
        <time>2017-03-19T11:22:20Z</time>
      </trkpt>
      <trkpt lat="48.48358" lon="2.24937">
        <ele>146</ele>
        <time>2017-03-19T11:22:52Z</time>
      </trkpt>
      <trkpt lat="48.48382" lon="2.24939">
        <ele>146</ele>
        <time>2017-03-19T11:23:04Z</time>
      </trkpt>
      <trkpt lat="48.48404" lon="2.24947">
        <ele>146</ele>
        <time>2017-03-19T11:23:19Z</time>
      </trkpt>
      <trkpt lat="48.48446" lon="2.24975">
        <ele>146</ele>
        <time>2017-03-19T11:23:52Z</time>
      </trkpt>
      <trkpt lat="48.48491" lon="2.24995">
        <ele>144</ele>
        <time>2017-03-19T11:24:23Z</time>
      </trkpt>
      <trkpt lat="48.48513" lon="2.25001">
        <ele>143</ele>
        <time>2017-03-19T11:24:41Z</time>
      </trkpt>
      <trkpt lat="48.48554" lon="2.25034">
        <ele>143</ele>
        <time>2017-03-19T11:25:15Z</time>
      </trkpt>
      <trkpt lat="48.48573" lon="2.25056">
        <ele>143</ele>
        <time>2017-03-19T11:25:35Z</time>
      </trkpt>
      <trkpt lat="48.48595" lon="2.25066">
        <ele>143</ele>
        <time>2017-03-19T11:25:53Z</time>
      </trkpt>
      <trkpt lat="48.48641" lon="2.25071">
        <ele>143</ele>
        <time>2017-03-19T11:26:26Z</time>
      </trkpt>
      <trkpt lat="48.48688" lon="2.25076">
        <ele>143</ele>
        <time>2017-03-19T11:27:04Z</time>
      </trkpt>
      <trkpt lat="48.48734" lon="2.25083">
        <ele>143</ele>
        <time>2017-03-19T11:27:41Z</time>
      </trkpt>
      <trkpt lat="48.4878" lon="2.25088">
        <ele>142</ele>
        <time>2017-03-19T11:28:16Z</time>
      </trkpt>
      <trkpt lat="48.48824" lon="2.25099">
        <ele>141</ele>
        <time>2017-03-19T11:28:50Z</time>
      </trkpt>
      <trkpt lat="48.48869" lon="2.25114">
        <ele>140</ele>
        <time>2017-03-19T11:29:23Z</time>
      </trkpt>
      <trkpt lat="48.48913" lon="2.25132">
        <ele>139</ele>
        <time>2017-03-19T11:29:57Z</time>
      </trkpt>
      <trkpt lat="48.48936" lon="2.2514">
        <ele>139</ele>
        <time>2017-03-19T11:30:14Z</time>
      </trkpt>
      <trkpt lat="48.48978" lon="2.2517">
        <ele>139</ele>
        <time>2017-03-19T11:30:50Z</time>
      </trkpt>
      <trkpt lat="48.49023" lon="2.2519">
        <ele>139</ele>
        <time>2017-03-19T11:31:26Z</time>
      </trkpt>
      <trkpt lat="48.49045" lon="2.252">
        <ele>138</ele>
        <time>2017-03-19T11:31:49Z</time>
      </trkpt>
      <trkpt lat="48.49064" lon="2.25179">
        <ele>138</ele>
        <time>2017-03-19T11:32:07Z</time>
      </trkpt>
      <trkpt lat="48.49079" lon="2.25113">
        <ele>139</ele>
        <time>2017-03-19T11:32:42Z</time>
      </trkpt>
      <trkpt lat="48.49094" lon="2.25046">
        <ele>141</ele>
        <time>2017-03-19T11:33:23Z</time>
      </trkpt>
      <trkpt lat="48.49111" lon="2.24981">
        <ele>142</ele>
        <time>2017-03-19T11:34:03Z</time>
      </trkpt>
      <trkpt lat="48.49126" lon="2.24916">
        <ele>143</ele>
        <time>2017-03-19T11:34:41Z</time>
      </trkpt>
      <trkpt lat="48.4913" lon="2.24882">
        <ele>143</ele>
        <time>2017-03-19T11:35:04Z</time>
      </trkpt>
      <trkpt lat="48.49133" lon="2.24848">
        <ele>143</ele>
        <time>2017-03-19T11:35:20Z</time>
      </trkpt>
      <trkpt lat="48.49129" lon="2.24814">
        <ele>144</ele>
        <time>2017-03-19T11:36:32Z</time>
      </trkpt>
      <trkpt lat="48.49131" lon="2.2478">
        <ele>145</ele>
        <time>2017-03-19T11:36:58Z</time>
      </trkpt>
      <trkpt lat="48.49152" lon="2.24766">
        <ele>147</ele>
        <time>2017-03-19T11:38:42Z</time>
      </trkpt>
      <trkpt lat="48.49195" lon="2.24743">
        <ele>148</ele>
        <time>2017-03-19T11:39:59Z</time>
      </trkpt>
      <trkpt lat="48.49239" lon="2.24716">
        <ele>148</ele>
        <time>2017-03-19T11:40:36Z</time>
      </trkpt>
      <trkpt lat="48.49285" lon="2.24689">
        <ele>148</ele>
        <time>2017-03-19T11:41:10Z</time>
      </trkpt>
      <trkpt lat="48.49327" lon="2.24659">
        <ele>147</ele>
        <time>2017-03-19T11:41:48Z</time>
      </trkpt>
      <trkpt lat="48.49372" lon="2.24634">
        <ele>146</ele>
        <time>2017-03-19T11:42:26Z</time>
      </trkpt>
      <trkpt lat="48.49394" lon="2.24624">
        <ele>146</ele>
        <time>2017-03-19T11:43:10Z</time>
      </trkpt>
      <trkpt lat="48.49414" lon="2.24605">
        <ele>145</ele>
        <time>2017-03-19T11:44:17Z</time>
      </trkpt>
      <trkpt lat="48.49459" lon="2.24587">
        <ele>145</ele>
        <time>2017-03-19T11:44:51Z</time>
      </trkpt>
      <trkpt lat="48.4948" lon="2.24576">
        <ele>145</ele>
        <time>2017-03-19T11:45:08Z</time>
      </trkpt>
      <trkpt lat="48.4952" lon="2.2454">
        <ele>145</ele>
        <time>2017-03-19T11:45:44Z</time>
      </trkpt>
      <trkpt lat="48.4956" lon="2.245">
        <ele>145</ele>
        <time>2017-03-19T11:46:18Z</time>
      </trkpt>
      <trkpt lat="48.49602" lon="2.24469">
        <ele>145</ele>
        <time>2017-03-19T11:46:55Z</time>
      </trkpt>
      <trkpt lat="48.49646" lon="2.24453">
        <ele>146</ele>
        <time>2017-03-19T11:47:32Z</time>
      </trkpt>
      <trkpt lat="48.49669" lon="2.24444">
        <ele>146</ele>
        <time>2017-03-19T11:47:49Z</time>
      </trkpt>
      <trkpt lat="48.49716" lon="2.24435">
        <ele>146</ele>
        <time>2017-03-19T11:48:22Z</time>
      </trkpt>
      <trkpt lat="48.49761" lon="2.2444">
        <ele>145</ele>
        <time>2017-03-19T11:48:57Z</time>
      </trkpt>
      <trkpt lat="48.49806" lon="2.24437">
        <ele>144</ele>
        <time>2017-03-19T11:49:28Z</time>
      </trkpt>
      <trkpt lat="48.4983" lon="2.24443">
        <ele>143</ele>
        <time>2017-03-19T11:49:49Z</time>
      </trkpt>
      <trkpt lat="48.49851" lon="2.24451">
        <ele>143</ele>
        <time>2017-03-19T11:50:10Z</time>
      </trkpt>
      <trkpt lat="48.49874" lon="2.24454">
        <ele>141</ele>
        <time>2017-03-19T11:50:56Z</time>
      </trkpt>
      <trkpt lat="48.49896" lon="2.24443">
        <ele>140</ele>
        <time>2017-03-19T11:51:30Z</time>
      </trkpt>
      <trkpt lat="48.49909" lon="2.24471">
        <ele>138</ele>
        <time>2017-03-19T11:52:15Z</time>
      </trkpt>
      <trkpt lat="48.49929" lon="2.2449">
        <ele>135</ele>
        <time>2017-03-19T11:52:47Z</time>
      </trkpt>
      <trkpt lat="48.4995" lon="2.24511">
        <ele>133</ele>
        <time>2017-03-19T11:53:14Z</time>
      </trkpt>
      <trkpt lat="48.49975" lon="2.24508">
        <ele>123</ele>
        <time>2017-03-19T11:56:49Z</time>
      </trkpt>
      <trkpt lat="48.49973" lon="2.24521">
        <ele>129</ele>
        <time>2017-03-19T12:49:57Z</time>
      </trkpt>
      <trkpt lat="48.49991" lon="2.24542">
        <ele>124</ele>
        <time>2017-03-19T12:56:34Z</time>
      </trkpt>
      <trkpt lat="48.50034" lon="2.24568">
        <ele>122</ele>
        <time>2017-03-19T12:57:16Z</time>
      </trkpt>
      <trkpt lat="48.50057" lon="2.24571">
        <ele>121</ele>
        <time>2017-03-19T12:57:36Z</time>
      </trkpt>
      <trkpt lat="48.50101" lon="2.24558">
        <ele>119</ele>
        <time>2017-03-19T12:58:16Z</time>
      </trkpt>
      <trkpt lat="48.50124" lon="2.24556">
        <ele>118</ele>
        <time>2017-03-19T12:58:49Z</time>
      </trkpt>
      <trkpt lat="48.50143" lon="2.24562">
        <ele>117</ele>
        <time>2017-03-19T12:59:15Z</time>
      </trkpt>
      <trkpt lat="48.50164" lon="2.24579">
        <ele>115</ele>
        <time>2017-03-19T12:59:52Z</time>
      </trkpt>
      <trkpt lat="48.50202" lon="2.24618">
        <ele>113</ele>
        <time>2017-03-19T13:00:39Z</time>
      </trkpt>
      <trkpt lat="48.50219" lon="2.24639">
        <ele>112</ele>
        <time>2017-03-19T13:00:55Z</time>
      </trkpt>
      <trkpt lat="48.50238" lon="2.24659">
        <ele>110</ele>
        <time>2017-03-19T13:01:13Z</time>
      </trkpt>
      <trkpt lat="48.50254" lon="2.24685">
        <ele>108</ele>
        <time>2017-03-19T13:01:35Z</time>
      </trkpt>
      <trkpt lat="48.50275" lon="2.24698">
        <ele>107</ele>
        <time>2017-03-19T13:01:56Z</time>
      </trkpt>
      <trkpt lat="48.50298" lon="2.24696">
        <ele>106</ele>
        <time>2017-03-19T13:02:13Z</time>
      </trkpt>
      <trkpt lat="48.50343" lon="2.24681">
        <ele>103</ele>
        <time>2017-03-19T13:02:50Z</time>
      </trkpt>
      <trkpt lat="48.50366" lon="2.24676">
        <ele>102</ele>
        <time>2017-03-19T13:03:15Z</time>
      </trkpt>
      <trkpt lat="48.50386" lon="2.24691">
        <ele>101</ele>
        <time>2017-03-19T13:03:33Z</time>
      </trkpt>
      <trkpt lat="48.50432" lon="2.24699">
        <ele>99</ele>
        <time>2017-03-19T13:04:08Z</time>
      </trkpt>
      <trkpt lat="48.50455" lon="2.24706">
        <ele>99</ele>
        <time>2017-03-19T13:04:26Z</time>
      </trkpt>
      <trkpt lat="48.50501" lon="2.24697">
        <ele>99</ele>
        <time>2017-03-19T13:04:57Z</time>
      </trkpt>
      <trkpt lat="48.50544" lon="2.24668">
        <ele>98</ele>
        <time>2017-03-19T13:05:36Z</time>
      </trkpt>
      <trkpt lat="48.50566" lon="2.24659">
        <ele>97</ele>
        <time>2017-03-19T13:05:49Z</time>
      </trkpt>
      <trkpt lat="48.50572" lon="2.24644">
        <ele>95</ele>
        <time>2017-03-19T13:07:43Z</time>
      </trkpt>
      <trkpt lat="48.50556" lon="2.24668">
        <ele>97</ele>
        <time>2017-03-19T13:08:38Z</time>
      </trkpt>
      <trkpt lat="48.50544" lon="2.24699">
        <ele>98</ele>
        <time>2017-03-19T13:09:14Z</time>
      </trkpt>
      <trkpt lat="48.50512" lon="2.24737">
        <ele>100</ele>
        <time>2017-03-19T13:09:53Z</time>
      </trkpt>
      <trkpt lat="48.505" lon="2.24767">
        <ele>101</ele>
        <time>2017-03-19T13:10:14Z</time>
      </trkpt>
      <trkpt lat="48.50467" lon="2.24818">
        <ele>103</ele>
        <time>2017-03-19T13:10:58Z</time>
      </trkpt>
      <trkpt lat="48.50445" lon="2.24879">
        <ele>106</ele>
        <time>2017-03-19T13:11:48Z</time>
      </trkpt>
      <trkpt lat="48.50427" lon="2.24899">
        <ele>108</ele>
        <time>2017-03-19T13:12:12Z</time>
      </trkpt>
      <trkpt lat="48.50403" lon="2.24907">
        <ele>110</ele>
        <time>2017-03-19T13:12:35Z</time>
      </trkpt>
      <trkpt lat="48.50372" lon="2.2496">
        <ele>113</ele>
        <time>2017-03-19T13:13:07Z</time>
      </trkpt>
      <trkpt lat="48.50345" lon="2.25016">
        <ele>119</ele>
        <time>2017-03-19T13:13:50Z</time>
      </trkpt>
      <trkpt lat="48.50334" lon="2.25046">
        <ele>122</ele>
        <time>2017-03-19T13:14:09Z</time>
      </trkpt>
      <trkpt lat="48.50302" lon="2.25092">
        <ele>126</ele>
        <time>2017-03-19T13:14:48Z</time>
      </trkpt>
      <trkpt lat="48.50272" lon="2.25144">
        <ele>130</ele>
        <time>2017-03-19T13:15:24Z</time>
      </trkpt>
      <trkpt lat="48.50238" lon="2.25193">
        <ele>134</ele>
        <time>2017-03-19T13:16:01Z</time>
      </trkpt>
      <trkpt lat="48.50234" lon="2.25226">
        <ele>139</ele>
        <time>2017-03-19T13:17:03Z</time>
      </trkpt>
      <trkpt lat="48.50217" lon="2.2524">
        <ele>139</ele>
        <time>2017-03-19T13:18:12Z</time>
      </trkpt>
      <trkpt lat="48.502" lon="2.25262">
        <ele>140</ele>
        <time>2017-03-19T13:18:45Z</time>
      </trkpt>
      <trkpt lat="48.50168" lon="2.25312">
        <ele>141</ele>
        <time>2017-03-19T13:19:20Z</time>
      </trkpt>
      <trkpt lat="48.50137" lon="2.25365">
        <ele>142</ele>
        <time>2017-03-19T13:19:54Z</time>
      </trkpt>
      <trkpt lat="48.50108" lon="2.25418">
        <ele>144</ele>
        <time>2017-03-19T13:20:31Z</time>
      </trkpt>
      <trkpt lat="48.5008" lon="2.25474">
        <ele>147</ele>
        <time>2017-03-19T13:21:08Z</time>
      </trkpt>
      <trkpt lat="48.50049" lon="2.25526">
        <ele>149</ele>
        <time>2017-03-19T13:21:44Z</time>
      </trkpt>
      <trkpt lat="48.50015" lon="2.25572">
        <ele>150</ele>
        <time>2017-03-19T13:22:18Z</time>
      </trkpt>
      <trkpt lat="48.49998" lon="2.25596">
        <ele>150</ele>
        <time>2017-03-19T13:22:36Z</time>
      </trkpt>
      <trkpt lat="48.49988" lon="2.25624">
        <ele>151</ele>
        <time>2017-03-19T13:23:18Z</time>
      </trkpt>
      <trkpt lat="48.50023" lon="2.2567">
        <ele>151</ele>
        <time>2017-03-19T13:24:01Z</time>
      </trkpt>
      <trkpt lat="48.50058" lon="2.25719">
        <ele>152</ele>
        <time>2017-03-19T13:24:36Z</time>
      </trkpt>
      <trkpt lat="48.50094" lon="2.25765">
        <ele>151</ele>
        <time>2017-03-19T13:25:14Z</time>
      </trkpt>
      <trkpt lat="48.50125" lon="2.25814">
        <ele>150</ele>
        <time>2017-03-19T13:25:46Z</time>
      </trkpt>
      <trkpt lat="48.5016" lon="2.25861">
        <ele>149</ele>
        <time>2017-03-19T13:26:20Z</time>
      </trkpt>
      <trkpt lat="48.50195" lon="2.25905">
        <ele>149</ele>
        <time>2017-03-19T13:26:55Z</time>
      </trkpt>
      <trkpt lat="48.50228" lon="2.25951">
        <ele>149</ele>
        <time>2017-03-19T13:27:29Z</time>
      </trkpt>
      <trkpt lat="48.50262" lon="2.25996">
        <ele>148</ele>
        <time>2017-03-19T13:28:02Z</time>
      </trkpt>
      <trkpt lat="48.50295" lon="2.26044">
        <ele>147</ele>
        <time>2017-03-19T13:28:37Z</time>
      </trkpt>
      <trkpt lat="48.50327" lon="2.26092">
        <ele>146</ele>
        <time>2017-03-19T13:29:10Z</time>
      </trkpt>
      <trkpt lat="48.50363" lon="2.26134">
        <ele>144</ele>
        <time>2017-03-19T13:29:44Z</time>
      </trkpt>
      <trkpt lat="48.50374" lon="2.26165">
        <ele>144</ele>
        <time>2017-03-19T13:30:09Z</time>
      </trkpt>
      <trkpt lat="48.50405" lon="2.26217">
        <ele>144</ele>
        <time>2017-03-19T13:30:45Z</time>
      </trkpt>
      <trkpt lat="48.50436" lon="2.2627">
        <ele>143</ele>
        <time>2017-03-19T13:31:20Z</time>
      </trkpt>
      <trkpt lat="48.50447" lon="2.263">
        <ele>143</ele>
        <time>2017-03-19T13:31:37Z</time>
      </trkpt>
      <trkpt lat="48.5048" lon="2.2635">
        <ele>141</ele>
        <time>2017-03-19T13:32:15Z</time>
      </trkpt>
      <trkpt lat="48.50495" lon="2.26376">
        <ele>140</ele>
        <time>2017-03-19T13:32:32Z</time>
      </trkpt>
      <trkpt lat="48.50531" lon="2.26419">
        <ele>139</ele>
        <time>2017-03-19T13:33:06Z</time>
      </trkpt>
      <trkpt lat="48.50564" lon="2.26465">
        <ele>137</ele>
        <time>2017-03-19T13:33:41Z</time>
      </trkpt>
      <trkpt lat="48.50597" lon="2.26517">
        <ele>136</ele>
        <time>2017-03-19T13:34:13Z</time>
      </trkpt>
      <trkpt lat="48.50627" lon="2.26571">
        <ele>135</ele>
        <time>2017-03-19T13:34:48Z</time>
      </trkpt>
      <trkpt lat="48.5064" lon="2.266">
        <ele>134</ele>
        <time>2017-03-19T13:35:04Z</time>
      </trkpt>
      <trkpt lat="48.50642" lon="2.26617">
        <ele>134</ele>
        <time>2017-03-19T13:35:47Z</time>
      </trkpt>
      <trkpt lat="48.50639" lon="2.26651">
        <ele>135</ele>
        <time>2017-03-19T13:37:29Z</time>
      </trkpt>
      <trkpt lat="48.50636" lon="2.26721">
        <ele>135</ele>
        <time>2017-03-19T13:38:04Z</time>
      </trkpt>
      <trkpt lat="48.50641" lon="2.26756">
        <ele>136</ele>
        <time>2017-03-19T13:38:20Z</time>
      </trkpt>
      <trkpt lat="48.50625" lon="2.26821">
        <ele>136</ele>
        <time>2017-03-19T13:38:54Z</time>
      </trkpt>
      <trkpt lat="48.50602" lon="2.26822">
        <ele>137</ele>
        <time>2017-03-19T13:39:40Z</time>
      </trkpt>
      <trkpt lat="48.50615" lon="2.26852">
        <ele>137</ele>
        <time>2017-03-19T13:41:12Z</time>
      </trkpt>
      <trkpt lat="48.50623" lon="2.26853">
        <ele>140</ele>
        <time>2017-03-19T13:41:51Z</time>
      </trkpt>
      <trkpt lat="48.50645" lon="2.26848">
        <ele>139</ele>
        <time>2017-03-19T13:42:48Z</time>
      </trkpt>
      <trkpt lat="48.50665" lon="2.26864">
        <ele>139</ele>
        <time>2017-03-19T13:43:12Z</time>
      </trkpt>
      <trkpt lat="48.50713" lon="2.26863">
        <ele>138</ele>
        <time>2017-03-19T13:43:45Z</time>
      </trkpt>
      <trkpt lat="48.50738" lon="2.26861">
        <ele>137</ele>
        <time>2017-03-19T13:44:02Z</time>
      </trkpt>
      <trkpt lat="48.50783" lon="2.26867">
        <ele>135</ele>
        <time>2017-03-19T13:44:36Z</time>
      </trkpt>
      <trkpt lat="48.5079" lon="2.2686">
        <ele>134</ele>
        <time>2017-03-19T13:45:09Z</time>
      </trkpt>
      <trkpt lat="48.50812" lon="2.26851">
        <ele>133</ele>
        <time>2017-03-19T13:46:06Z</time>
      </trkpt>
      <trkpt lat="48.50853" lon="2.26822">
        <ele>131</ele>
        <time>2017-03-19T13:46:40Z</time>
      </trkpt>
      <trkpt lat="48.50895" lon="2.26789">
        <ele>130</ele>
        <time>2017-03-19T13:47:15Z</time>
      </trkpt>
      <trkpt lat="48.50911" lon="2.26764">
        <ele>130</ele>
        <time>2017-03-19T13:47:33Z</time>
      </trkpt>
      <trkpt lat="48.50956" lon="2.26737">
        <ele>128</ele>
        <time>2017-03-19T13:48:18Z</time>
      </trkpt>
      <trkpt lat="48.50994" lon="2.26698">
        <ele>128</ele>
        <time>2017-03-19T13:48:57Z</time>
      </trkpt>
      <trkpt lat="48.51014" lon="2.2668">
        <ele>128</ele>
        <time>2017-03-19T13:49:18Z</time>
      </trkpt>
      <trkpt lat="48.5103" lon="2.26656">
        <ele>128</ele>
        <time>2017-03-19T13:49:35Z</time>
      </trkpt>
      <trkpt lat="48.51039" lon="2.26624">
        <ele>128</ele>
        <time>2017-03-19T13:49:57Z</time>
      </trkpt>
      <trkpt lat="48.51066" lon="2.26569">
        <ele>128</ele>
        <time>2017-03-19T13:50:27Z</time>
      </trkpt>
      <trkpt lat="48.51072" lon="2.26499">
        <ele>128</ele>
        <time>2017-03-19T13:51:03Z</time>
      </trkpt>
      <trkpt lat="48.51072" lon="2.2643">
        <ele>128</ele>
        <time>2017-03-19T13:51:38Z</time>
      </trkpt>
      <trkpt lat="48.5107" lon="2.26395">
        <ele>129</ele>
        <time>2017-03-19T13:51:57Z</time>
      </trkpt>
      <trkpt lat="48.51075" lon="2.26359">
        <ele>129</ele>
        <time>2017-03-19T13:52:17Z</time>
      </trkpt>
      <trkpt lat="48.51074" lon="2.26323">
        <ele>129</ele>
        <time>2017-03-19T13:52:33Z</time>
      </trkpt>
      <trkpt lat="48.51064" lon="2.26292">
        <ele>129</ele>
        <time>2017-03-19T13:52:49Z</time>
      </trkpt>
      <trkpt lat="48.51048" lon="2.26266">
        <ele>130</ele>
        <time>2017-03-19T13:53:04Z</time>
      </trkpt>
      <trkpt lat="48.51073" lon="2.26209">
        <ele>130</ele>
        <time>2017-03-19T13:53:40Z</time>
      </trkpt>
      <trkpt lat="48.51054" lon="2.26229">
        <ele>131</ele>
        <time>2017-03-19T13:54:59Z</time>
      </trkpt>
      <trkpt lat="48.51048" lon="2.26252">
        <ele>132</ele>
        <time>2017-03-19T13:56:33Z</time>
      </trkpt>
      <trkpt lat="48.51066" lon="2.26229">
        <ele>131</ele>
        <time>2017-03-19T14:01:08Z</time>
      </trkpt>
      <trkpt lat="48.51086" lon="2.26166">
        <ele>130</ele>
        <time>2017-03-19T14:01:46Z</time>
      </trkpt>
      <trkpt lat="48.51082" lon="2.26132">
        <ele>129</ele>
        <time>2017-03-19T14:02:04Z</time>
      </trkpt>
      <trkpt lat="48.51068" lon="2.26106">
        <ele>128</ele>
        <time>2017-03-19T14:02:22Z</time>
      </trkpt>
      <trkpt lat="48.5106" lon="2.26073">
        <ele>128</ele>
        <time>2017-03-19T14:02:42Z</time>
      </trkpt>
      <trkpt lat="48.51078" lon="2.26051">
        <ele>127</ele>
        <time>2017-03-19T14:03:09Z</time>
      </trkpt>
      <trkpt lat="48.51099" lon="2.26035">
        <ele>125</ele>
        <time>2017-03-19T14:03:40Z</time>
      </trkpt>
      <trkpt lat="48.51121" lon="2.26032">
        <ele>122</ele>
        <time>2017-03-19T14:04:27Z</time>
      </trkpt>
      <trkpt lat="48.51146" lon="2.26024">
        <ele>119</ele>
        <time>2017-03-19T14:05:07Z</time>
      </trkpt>
      <trkpt lat="48.5117" lon="2.26024">
        <ele>114</ele>
        <time>2017-03-19T14:05:38Z</time>
      </trkpt>
      <trkpt lat="48.51189" lon="2.26042">
        <ele>110</ele>
        <time>2017-03-19T14:06:12Z</time>
      </trkpt>
      <trkpt lat="48.51193" lon="2.26076">
        <ele>106</ele>
        <time>2017-03-19T14:06:44Z</time>
      </trkpt>
      <trkpt lat="48.51214" lon="2.26138">
        <ele>100</ele>
        <time>2017-03-19T14:07:11Z</time>
      </trkpt>
      <trkpt lat="48.51251" lon="2.26183">
        <ele>94</ele>
        <time>2017-03-19T14:07:51Z</time>
      </trkpt>
      <trkpt lat="48.51277" lon="2.26193">
        <ele>92</ele>
        <time>2017-03-19T14:08:12Z</time>
      </trkpt>
      <trkpt lat="48.513" lon="2.26188">
        <ele>90</ele>
        <time>2017-03-19T14:08:30Z</time>
      </trkpt>
      <trkpt lat="48.51322" lon="2.26194">
        <ele>87</ele>
        <time>2017-03-19T14:08:49Z</time>
      </trkpt>
      <trkpt lat="48.51344" lon="2.26209">
        <ele>86</ele>
        <time>2017-03-19T14:09:05Z</time>
      </trkpt>
      <trkpt lat="48.51367" lon="2.26204">
        <ele>83</ele>
        <time>2017-03-19T14:09:33Z</time>
      </trkpt>
      <trkpt lat="48.51379" lon="2.26233">
        <ele>73</ele>
        <time>2017-03-19T14:10:50Z</time>
      </trkpt>
      <trkpt lat="48.51402" lon="2.26236">
        <ele>69</ele>
        <time>2017-03-19T14:11:08Z</time>
      </trkpt>
      <trkpt lat="48.51436" lon="2.26191">
        <ele>68</ele>
        <time>2017-03-19T14:11:42Z</time>
      </trkpt>
      <trkpt lat="48.51458" lon="2.26203">
        <ele>67</ele>
        <time>2017-03-19T14:12:12Z</time>
      </trkpt>
      <trkpt lat="48.51481" lon="2.26196">
        <ele>67</ele>
        <time>2017-03-19T14:12:59Z</time>
      </trkpt>
      <trkpt lat="48.51504" lon="2.26196">
        <ele>65</ele>
        <time>2017-03-19T14:13:30Z</time>
      </trkpt>
      <trkpt lat="48.51527" lon="2.26199">
        <ele>63</ele>
        <time>2017-03-19T14:13:49Z</time>
      </trkpt>
      <trkpt lat="48.51547" lon="2.2618">
        <ele>62</ele>
        <time>2017-03-19T14:14:06Z</time>
      </trkpt>
      <trkpt lat="48.51561" lon="2.26153">
        <ele>61</ele>
        <time>2017-03-19T14:14:22Z</time>
      </trkpt>
      <trkpt lat="48.51579" lon="2.26131">
        <ele>58</ele>
        <time>2017-03-19T14:16:36Z</time>
      </trkpt>
      <trkpt lat="48.51602" lon="2.26132">
        <ele>57</ele>
        <time>2017-03-19T14:17:01Z</time>
      </trkpt>
      <trkpt lat="48.51623" lon="2.26151">
        <ele>57</ele>
        <time>2017-03-19T14:17:20Z</time>
      </trkpt>
      <trkpt lat="48.51643" lon="2.26168">
        <ele>57</ele>
        <time>2017-03-19T14:17:38Z</time>
      </trkpt>
      <trkpt lat="48.51663" lon="2.26188">
        <ele>57</ele>
        <time>2017-03-19T14:17:58Z</time>
      </trkpt>
      <trkpt lat="48.51677" lon="2.26216">
        <ele>58</ele>
        <time>2017-03-19T14:18:13Z</time>
      </trkpt>
      <trkpt lat="48.51699" lon="2.26211">
        <ele>60</ele>
        <time>2017-03-19T14:19:36Z</time>
      </trkpt>
      <trkpt lat="48.5172" lon="2.26226">
        <ele>61</ele>
        <time>2017-03-19T14:19:55Z</time>
      </trkpt>
      <trkpt lat="48.51744" lon="2.26228">
        <ele>61</ele>
        <time>2017-03-19T14:20:11Z</time>
      </trkpt>
      <trkpt lat="48.51783" lon="2.26188">
        <ele>62</ele>
        <time>2017-03-19T14:20:52Z</time>
      </trkpt>
      <trkpt lat="48.51804" lon="2.26167">
        <ele>62</ele>
        <time>2017-03-19T14:21:09Z</time>
      </trkpt>
      <trkpt lat="48.51811" lon="2.26154">
        <ele>63</ele>
        <time>2017-03-19T14:22:31Z</time>
      </trkpt>
      <trkpt lat="48.51821" lon="2.26188">
        <ele>64</ele>
        <time>2017-03-19T14:23:55Z</time>
      </trkpt>
      <trkpt lat="48.51845" lon="2.26246">
        <ele>64</ele>
        <time>2017-03-19T14:24:32Z</time>
      </trkpt>
      <trkpt lat="48.51865" lon="2.26307">
        <ele>64</ele>
        <time>2017-03-19T14:25:14Z</time>
      </trkpt>
      <trkpt lat="48.51887" lon="2.26368">
        <ele>63</ele>
        <time>2017-03-19T14:25:49Z</time>
      </trkpt>
      <trkpt lat="48.51906" lon="2.26387">
        <ele>63</ele>
        <time>2017-03-19T14:26:06Z</time>
      </trkpt>
      <trkpt lat="48.51925" lon="2.26409">
        <ele>63</ele>
        <time>2017-03-19T14:26:25Z</time>
      </trkpt>
      <trkpt lat="48.51946" lon="2.26421">
        <ele>63</ele>
        <time>2017-03-19T14:26:47Z</time>
      </trkpt>
      <trkpt lat="48.51964" lon="2.26441">
        <ele>63</ele>
        <time>2017-03-19T14:27:06Z</time>
      </trkpt>
      <trkpt lat="48.52009" lon="2.26455">
        <ele>62</ele>
        <time>2017-03-19T14:27:45Z</time>
      </trkpt>
      <trkpt lat="48.52051" lon="2.26486">
        <ele>62</ele>
        <time>2017-03-19T14:28:23Z</time>
      </trkpt>
      <trkpt lat="48.52073" lon="2.26496">
        <ele>62</ele>
        <time>2017-03-19T14:28:40Z</time>
      </trkpt>
      <trkpt lat="48.52092" lon="2.26514">
        <ele>62</ele>
        <time>2017-03-19T14:29:27Z</time>
      </trkpt>
      <trkpt lat="48.52113" lon="2.2653">
        <ele>62</ele>
        <time>2017-03-19T14:29:51Z</time>
      </trkpt>
      <trkpt lat="48.52134" lon="2.26533">
        <ele>62</ele>
        <time>2017-03-19T14:30:24Z</time>
      </trkpt>
      <trkpt lat="48.5215" lon="2.26557">
        <ele>63</ele>
        <time>2017-03-19T14:31:07Z</time>
      </trkpt>
      <trkpt lat="48.52172" lon="2.26566">
        <ele>63</ele>
        <time>2017-03-19T14:31:42Z</time>
      </trkpt>
      <trkpt lat="48.52208" lon="2.26611">
        <ele>63</ele>
        <time>2017-03-19T14:32:25Z</time>
      </trkpt>
      <trkpt lat="48.52222" lon="2.26638">
        <ele>63</ele>
        <time>2017-03-19T14:32:45Z</time>
      </trkpt>
      <trkpt lat="48.52229" lon="2.26654">
        <ele>64</ele>
        <time>2017-03-19T14:33:38Z</time>
      </trkpt>
      <trkpt lat="48.5225" lon="2.2667">
        <ele>64</ele>
        <time>2017-03-19T14:34:32Z</time>
      </trkpt>
      <trkpt lat="48.52308" lon="2.26729">
        <ele>64</ele>
        <time>2017-03-19T14:35:18Z</time>
      </trkpt>
      <trkpt lat="48.52323" lon="2.26754">
        <ele>64</ele>
        <time>2017-03-19T14:35:33Z</time>
      </trkpt>
      <trkpt lat="48.52345" lon="2.26768">
        <ele>63</ele>
        <time>2017-03-19T14:35:49Z</time>
      </trkpt>
      <trkpt lat="48.52387" lon="2.26797">
        <ele>63</ele>
        <time>2017-03-19T14:36:23Z</time>
      </trkpt>
      <trkpt lat="48.52423" lon="2.26838">
        <ele>63</ele>
        <time>2017-03-19T14:36:58Z</time>
      </trkpt>
      <trkpt lat="48.52446" lon="2.26897">
        <ele>63</ele>
        <time>2017-03-19T14:37:34Z</time>
      </trkpt>
      <trkpt lat="48.52467" lon="2.26958">
        <ele>63</ele>
        <time>2017-03-19T14:38:06Z</time>
      </trkpt>
      <trkpt lat="48.52479" lon="2.26988">
        <ele>63</ele>
        <time>2017-03-19T14:38:49Z</time>
      </trkpt>
      <trkpt lat="48.52499" lon="2.27007">
        <ele>63</ele>
        <time>2017-03-19T14:39:07Z</time>
      </trkpt>
      <trkpt lat="48.52515" lon="2.27032">
        <ele>64</ele>
        <time>2017-03-19T14:39:24Z</time>
      </trkpt>
      <trkpt lat="48.52537" lon="2.27018">
        <ele>64</ele>
        <time>2017-03-19T14:39:55Z</time>
      </trkpt>
      <trkpt lat="48.52583" lon="2.26992">
        <ele>65</ele>
        <time>2017-03-19T14:40:37Z</time>
      </trkpt>
      <trkpt lat="48.52627" lon="2.26977">
        <ele>67</ele>
        <time>2017-03-19T14:41:11Z</time>
      </trkpt>
      <trkpt lat="48.52649" lon="2.2699">
        <ele>69</ele>
        <time>2017-03-19T14:41:33Z</time>
      </trkpt>
      <trkpt lat="48.52661" lon="2.27022">
        <ele>69</ele>
        <time>2017-03-19T14:41:52Z</time>
      </trkpt>
      <trkpt lat="48.52682" lon="2.27033">
        <ele>70</ele>
        <time>2017-03-19T14:42:11Z</time>
      </trkpt>
      <trkpt lat="48.52727" lon="2.27026">
        <ele>71</ele>
        <time>2017-03-19T14:42:46Z</time>
      </trkpt>
      <trkpt lat="48.52774" lon="2.27018">
        <ele>71</ele>
        <time>2017-03-19T14:43:21Z</time>
      </trkpt>
      <trkpt lat="48.52821" lon="2.27016">
        <ele>72</ele>
        <time>2017-03-19T14:44:05Z</time>
      </trkpt>
      <trkpt lat="48.52844" lon="2.27016">
        <ele>74</ele>
        <time>2017-03-19T14:44:31Z</time>
      </trkpt>
      <trkpt lat="48.52855" lon="2.2705">
        <ele>75</ele>
        <time>2017-03-19T14:44:52Z</time>
      </trkpt>
      <trkpt lat="48.52858" lon="2.27075">
        <ele>76</ele>
        <time>2017-03-19T14:45:36Z</time>
      </trkpt>
      <trkpt lat="48.52874" lon="2.2714">
        <ele>78</ele>
        <time>2017-03-19T14:46:08Z</time>
      </trkpt>
      <trkpt lat="48.52895" lon="2.27201">
        <ele>78</ele>
        <time>2017-03-19T14:46:47Z</time>
      </trkpt>
      <trkpt lat="48.52929" lon="2.27243">
        <ele>80</ele>
        <time>2017-03-19T14:47:25Z</time>
      </trkpt>
      <trkpt lat="48.52967" lon="2.27283">
        <ele>82</ele>
        <time>2017-03-19T14:48:07Z</time>
      </trkpt>
      <trkpt lat="48.5299" lon="2.27287">
        <ele>83</ele>
        <time>2017-03-19T14:48:23Z</time>
      </trkpt>
      <trkpt lat="48.53007" lon="2.27311">
        <ele>84</ele>
        <time>2017-03-19T14:48:41Z</time>
      </trkpt>
      <trkpt lat="48.53027" lon="2.2733">
        <ele>85</ele>
        <time>2017-03-19T14:49:01Z</time>
      </trkpt>
      <trkpt lat="48.53049" lon="2.27339">
        <ele>86</ele>
        <time>2017-03-19T14:49:19Z</time>
      </trkpt>
      <trkpt lat="48.53064" lon="2.27365">
        <ele>87</ele>
        <time>2017-03-19T14:49:40Z</time>
      </trkpt>
      <trkpt lat="48.53112" lon="2.27378">
        <ele>89</ele>
        <time>2017-03-19T14:50:12Z</time>
      </trkpt>
      <trkpt lat="48.53158" lon="2.2738">
        <ele>92</ele>
        <time>2017-03-19T14:50:50Z</time>
      </trkpt>
      <trkpt lat="48.53206" lon="2.2739">
        <ele>97</ele>
        <time>2017-03-19T14:51:48Z</time>
      </trkpt>
      <trkpt lat="48.53251" lon="2.27401">
        <ele>101</ele>
        <time>2017-03-19T14:52:17Z</time>
      </trkpt>
      <trkpt lat="48.53274" lon="2.274">
        <ele>103</ele>
        <time>2017-03-19T14:52:40Z</time>
      </trkpt>
      <trkpt lat="48.53299" lon="2.27412">
        <ele>105</ele>
        <time>2017-03-19T14:53:09Z</time>
      </trkpt>
      <trkpt lat="48.53322" lon="2.27409">
        <ele>107</ele>
        <time>2017-03-19T14:53:28Z</time>
      </trkpt>
      <trkpt lat="48.53342" lon="2.27427">
        <ele>110</ele>
        <time>2017-03-19T14:53:50Z</time>
      </trkpt>
      <trkpt lat="48.53359" lon="2.27422">
        <ele>112</ele>
        <time>2017-03-19T14:54:26Z</time>
      </trkpt>
      <trkpt lat="48.53381" lon="2.27434">
        <ele>124</ele>
        <time>2017-03-19T14:57:31Z</time>
      </trkpt>
      <trkpt lat="48.53403" lon="2.27448">
        <ele>126</ele>
        <time>2017-03-19T14:57:49Z</time>
      </trkpt>
      <trkpt lat="48.53447" lon="2.27465">
        <ele>130</ele>
        <time>2017-03-19T14:58:33Z</time>
      </trkpt>
      <trkpt lat="48.5347" lon="2.27455">
        <ele>132</ele>
        <time>2017-03-19T14:58:53Z</time>
      </trkpt>
      <trkpt lat="48.53492" lon="2.2745">
        <ele>133</ele>
        <time>2017-03-19T14:59:15Z</time>
      </trkpt>
      <trkpt lat="48.5351" lon="2.27428">
        <ele>135</ele>
        <time>2017-03-19T14:59:34Z</time>
      </trkpt>
      <trkpt lat="48.53533" lon="2.27405">
        <ele>136</ele>
        <time>2017-03-19T15:00:44Z</time>
      </trkpt>
      <trkpt lat="48.53552" lon="2.27388">
        <ele>136</ele>
        <time>2017-03-19T15:01:07Z</time>
      </trkpt>
      <trkpt lat="48.53551" lon="2.27354">
        <ele>136</ele>
        <time>2017-03-19T15:01:36Z</time>
      </trkpt>
      <trkpt lat="48.53524" lon="2.27306">
        <ele>136</ele>
        <time>2017-03-19T15:02:13Z</time>
      </trkpt>
      <trkpt lat="48.53507" lon="2.27242">
        <ele>135</ele>
        <time>2017-03-19T15:02:50Z</time>
      </trkpt>
      <trkpt lat="48.53498" lon="2.2721">
        <ele>135</ele>
        <time>2017-03-19T15:03:09Z</time>
      </trkpt>
      <trkpt lat="48.53485" lon="2.27182">
        <ele>135</ele>
        <time>2017-03-19T15:03:28Z</time>
      </trkpt>
      <trkpt lat="48.53485" lon="2.27147">
        <ele>135</ele>
        <time>2017-03-19T15:03:59Z</time>
      </trkpt>
      <trkpt lat="48.53496" lon="2.27116">
        <ele>135</ele>
        <time>2017-03-19T15:04:14Z</time>
      </trkpt>
      <trkpt lat="48.53511" lon="2.2709">
        <ele>136</ele>
        <time>2017-03-19T15:04:30Z</time>
      </trkpt>
      <trkpt lat="48.53514" lon="2.2708">
        <ele>136</ele>
        <time>2017-03-19T15:04:37Z</time>
      </trkpt>
      <trkpt lat="48.53519" lon="2.27044">
        <ele>136</ele>
        <time>2017-03-19T15:04:58Z</time>
      </trkpt>
      <trkpt lat="48.53517" lon="2.2701">
        <ele>136</ele>
        <time>2017-03-19T15:05:21Z</time>
      </trkpt>
      <trkpt lat="48.53498" lon="2.26999">
        <ele>136</ele>
        <time>2017-03-19T15:06:03Z</time>
      </trkpt>
      <trkpt lat="48.53475" lon="2.26986">
        <ele>136</ele>
        <time>2017-03-19T15:06:25Z</time>
      </trkpt>
      <trkpt lat="48.53454" lon="2.26972">
        <ele>137</ele>
        <time>2017-03-19T15:06:47Z</time>
      </trkpt>
      <trkpt lat="48.53431" lon="2.26974">
        <ele>137</ele>
        <time>2017-03-19T15:07:02Z</time>
      </trkpt>
      <trkpt lat="48.53387" lon="2.26953">
        <ele>137</ele>
        <time>2017-03-19T15:07:34Z</time>
      </trkpt>
      <trkpt lat="48.53372" lon="2.26925">
        <ele>137</ele>
        <time>2017-03-19T15:07:54Z</time>
      </trkpt>
      <trkpt lat="48.53362" lon="2.26893">
        <ele>137</ele>
        <time>2017-03-19T15:08:10Z</time>
      </trkpt>
      <trkpt lat="48.53353" lon="2.26826">
        <ele>136</ele>
        <time>2017-03-19T15:08:45Z</time>
      </trkpt>
      <trkpt lat="48.5333" lon="2.26766">
        <ele>136</ele>
        <time>2017-03-19T15:09:22Z</time>
      </trkpt>
      <trkpt lat="48.53292" lon="2.26722">
        <ele>136</ele>
        <time>2017-03-19T15:09:56Z</time>
      </trkpt>
      <trkpt lat="48.53276" lon="2.26697">
        <ele>135</ele>
        <time>2017-03-19T15:10:14Z</time>
      </trkpt>
      <trkpt lat="48.53258" lon="2.26685">
        <ele>135</ele>
        <time>2017-03-19T15:11:07Z</time>
      </trkpt>
      <trkpt lat="48.53238" lon="2.26666">
        <ele>135</ele>
        <time>2017-03-19T15:11:29Z</time>
      </trkpt>
      <trkpt lat="48.53225" lon="2.26662">
        <ele>135</ele>
        <time>2017-03-19T15:14:29Z</time>
      </trkpt>
      <trkpt lat="48.53247" lon="2.26677">
        <ele>136</ele>
        <time>2017-03-19T15:14:54Z</time>
      </trkpt>
      <trkpt lat="48.53266" lon="2.2674">
        <ele>136</ele>
        <time>2017-03-19T15:15:32Z</time>
      </trkpt>
      <trkpt lat="48.53262" lon="2.26706">
        <ele>138</ele>
        <time>2017-03-19T15:16:45Z</time>
      </trkpt>
      <trkpt lat="48.53251" lon="2.26673">
        <ele>139</ele>
        <time>2017-03-19T15:17:03Z</time>
      </trkpt>
      <trkpt lat="48.53241" lon="2.26602">
        <ele>139</ele>
        <time>2017-03-19T15:17:42Z</time>
      </trkpt>
      <trkpt lat="48.53236" lon="2.26535">
        <ele>139</ele>
        <time>2017-03-19T15:18:19Z</time>
      </trkpt>
      <trkpt lat="48.53227" lon="2.26465">
        <ele>141</ele>
        <time>2017-03-19T15:18:59Z</time>
      </trkpt>
      <trkpt lat="48.53219" lon="2.26397">
        <ele>142</ele>
        <time>2017-03-19T15:19:39Z</time>
      </trkpt>
      <trkpt lat="48.53217" lon="2.26383">
        <ele>142</ele>
        <time>2017-03-19T15:19:51Z</time>
      </trkpt>
      <trkpt lat="48.53182" lon="2.26339">
        <ele>141</ele>
        <time>2017-03-19T15:20:28Z</time>
      </trkpt>
      <trkpt lat="48.53161" lon="2.26355">
        <ele>141</ele>
        <time>2017-03-19T15:20:47Z</time>
      </trkpt>
      <trkpt lat="48.53144" lon="2.26378">
        <ele>140</ele>
        <time>2017-03-19T15:21:04Z</time>
      </trkpt>
      <trkpt lat="48.5312" lon="2.26386">
        <ele>139</ele>
        <time>2017-03-19T15:21:20Z</time>
      </trkpt>
      <trkpt lat="48.53098" lon="2.26395">
        <ele>137</ele>
        <time>2017-03-19T15:21:43Z</time>
      </trkpt>
      <trkpt lat="48.53057" lon="2.26426">
        <ele>134</ele>
        <time>2017-03-19T15:22:23Z</time>
      </trkpt>
      <trkpt lat="48.53035" lon="2.26442">
        <ele>132</ele>
        <time>2017-03-19T15:22:40Z</time>
      </trkpt>
      <trkpt lat="48.5299" lon="2.26433">
        <ele>127</ele>
        <time>2017-03-19T15:23:15Z</time>
      </trkpt>
      <trkpt lat="48.52966" lon="2.26431">
        <ele>124</ele>
        <time>2017-03-19T15:23:34Z</time>
      </trkpt>
      <trkpt lat="48.52945" lon="2.26442">
        <ele>120</ele>
        <time>2017-03-19T15:23:56Z</time>
      </trkpt>
      <trkpt lat="48.52923" lon="2.26451">
        <ele>105</ele>
        <time>2017-03-19T15:25:00Z</time>
      </trkpt>
      <trkpt lat="48.52901" lon="2.2647">
        <ele>103</ele>
        <time>2017-03-19T15:27:50Z</time>
      </trkpt>
      <trkpt lat="48.52882" lon="2.26485">
        <ele>96</ele>
        <time>2017-03-19T15:30:47Z</time>
      </trkpt>
      <trkpt lat="48.52859" lon="2.26492">
        <ele>95</ele>
        <time>2017-03-19T15:31:09Z</time>
      </trkpt>
      <trkpt lat="48.52839" lon="2.26512">
        <ele>94</ele>
        <time>2017-03-19T15:31:26Z</time>
      </trkpt>
      <trkpt lat="48.52817" lon="2.26519">
        <ele>92</ele>
        <time>2017-03-19T15:35:07Z</time>
      </trkpt>
      <trkpt lat="48.52795" lon="2.26526">
        <ele>91</ele>
        <time>2017-03-19T15:35:21Z</time>
      </trkpt>
      <trkpt lat="48.52749" lon="2.26539">
        <ele>89</ele>
        <time>2017-03-19T15:36:03Z</time>
      </trkpt>
      <trkpt lat="48.5271" lon="2.26579">
        <ele>86</ele>
        <time>2017-03-19T15:36:57Z</time>
      </trkpt>
      <trkpt lat="48.5267" lon="2.266">
        <ele>84</ele>
        <time>2017-03-19T15:37:32Z</time>
      </trkpt>
      <trkpt lat="48.52648" lon="2.26608">
        <ele>82</ele>
        <time>2017-03-19T15:37:45Z</time>
      </trkpt>
      <trkpt lat="48.52624" lon="2.2661">
        <ele>81</ele>
        <time>2017-03-19T15:38:03Z</time>
      </trkpt>
      <trkpt lat="48.52578" lon="2.26622">
        <ele>78</ele>
        <time>2017-03-19T15:38:37Z</time>
      </trkpt>
      <trkpt lat="48.52531" lon="2.26628">
        <ele>75</ele>
        <time>2017-03-19T15:39:13Z</time>
      </trkpt>
      <trkpt lat="48.5251" lon="2.26639">
        <ele>74</ele>
        <time>2017-03-19T15:39:34Z</time>
      </trkpt>
      <trkpt lat="48.52488" lon="2.26629">
        <ele>73</ele>
        <time>2017-03-19T15:39:57Z</time>
      </trkpt>
      <trkpt lat="48.52463" lon="2.26571">
        <ele>72</ele>
        <time>2017-03-19T15:40:31Z</time>
      </trkpt>
      <trkpt lat="48.52445" lon="2.26507">
        <ele>72</ele>
        <time>2017-03-19T15:41:09Z</time>
      </trkpt>
      <trkpt lat="48.52425" lon="2.26446">
        <ele>72</ele>
        <time>2017-03-19T15:41:43Z</time>
      </trkpt>
      <trkpt lat="48.52402" lon="2.26386">
        <ele>73</ele>
        <time>2017-03-19T15:42:21Z</time>
      </trkpt>
      <trkpt lat="48.52394" lon="2.26354">
        <ele>74</ele>
        <time>2017-03-19T15:42:38Z</time>
      </trkpt>
      <trkpt lat="48.52364" lon="2.26299">
        <ele>75</ele>
        <time>2017-03-19T15:43:15Z</time>
      </trkpt>
      <trkpt lat="48.52351" lon="2.2627">
        <ele>75</ele>
        <time>2017-03-19T15:43:32Z</time>
      </trkpt>
      <trkpt lat="48.52317" lon="2.2622">
        <ele>75</ele>
        <time>2017-03-19T15:44:08Z</time>
      </trkpt>
      <trkpt lat="48.52288" lon="2.26165">
        <ele>76</ele>
        <time>2017-03-19T15:44:44Z</time>
      </trkpt>
      <trkpt lat="48.52262" lon="2.2613">
        <ele>76</ele>
        <time>2017-03-19T15:45:25Z</time>
      </trkpt>
      <trkpt lat="48.52232" lon="2.26077">
        <ele>77</ele>
        <time>2017-03-19T15:46:04Z</time>
      </trkpt>
      <trkpt lat="48.52198" lon="2.26031">
        <ele>77</ele>
        <time>2017-03-19T15:46:44Z</time>
      </trkpt>
      <trkpt lat="48.52183" lon="2.26001">
        <ele>77</ele>
        <time>2017-03-19T15:47:01Z</time>
      </trkpt>
      <trkpt lat="48.52158" lon="2.25942">
        <ele>78</ele>
        <time>2017-03-19T15:47:35Z</time>
      </trkpt>
      <trkpt lat="48.52151" lon="2.2591">
        <ele>78</ele>
        <time>2017-03-19T15:47:54Z</time>
      </trkpt>
      <trkpt lat="48.52139" lon="2.2588">
        <ele>78</ele>
        <time>2017-03-19T15:48:12Z</time>
      </trkpt>
      <trkpt lat="48.52116" lon="2.25818">
        <ele>78</ele>
        <time>2017-03-19T15:48:48Z</time>
      </trkpt>
      <trkpt lat="48.52088" lon="2.25758">
        <ele>79</ele>
        <time>2017-03-19T15:49:34Z</time>
      </trkpt>
      <trkpt lat="48.52077" lon="2.25727">
        <ele>79</ele>
        <time>2017-03-19T15:49:53Z</time>
      </trkpt>
      <trkpt lat="48.52073" lon="2.25693">
        <ele>79</ele>
        <time>2017-03-19T15:50:10Z</time>
      </trkpt>
      <trkpt lat="48.52078" lon="2.2566">
        <ele>79</ele>
        <time>2017-03-19T15:50:28Z</time>
      </trkpt>
      <trkpt lat="48.52072" lon="2.25626">
        <ele>80</ele>
        <time>2017-03-19T15:50:45Z</time>
      </trkpt>
      <trkpt lat="48.52066" lon="2.25593">
        <ele>80</ele>
        <time>2017-03-19T15:51:03Z</time>
      </trkpt>
    </trkseg>
  </trk>
</gpx>